Istres Le Tubé/Istres Air Base (BA 125) Airport

Airport
ICAO code: 
LFMI
Summary
ICAO Region: 
EUR
Territory: 
Location: 
, Provence-Alpes-Cote d'Azur
Serving: 
Istres
Elevation: 
82 ft
Coordinates: 
Aerial View: 
43° 31' 21.85" N, 4° 55' 25.838" E
Metar
Observation
LFMI 302100Z AUTO 27011KT CAVOK 05/M01 Q1021 NOSIG
Station
Istres
Date/Time
2021-11-30 21:00:00
Wind direction
270°
Wind speed
11 kts
Lowest cloud amount
clouds and visibility OK
Temperature
5°C
Dew point
-1°C
Humidity
65%
QNH
1021 hPa
Weather condition
n/a

Runways

Designator Length Width Surface Rops
15/33 3750 60 ASP Yes/Yes
Airport map: 
Aerial View: 

SKYbrary Partners:

Safety knowledge contributed by: